Alsip, IL

4:44 AM CDT on November 01, 2014 (GMT -0500)
Southwest Ball Hockey | Change Station
CLOSE
Current Station
Personal Weather Station
Location: Alsip, IL
Elevation: 617 ft
Nearby Weather Stations

Elev 617 ft 41.68 °N, 87.76 °W | Updated 6 seconds ago

Overcast
Overcast
36.3 °F
Feels Like 29 °F
N
11.0
Wind Variable Wind from ESE
Gusts 12.0 mph

Today
High -- | Low -- °F
--% Chance of Precip.
Yesterday
High -- | Low -- °F
Precip. -- in
7:23 AM 5:45 PM
Waxing Gibbous, 65% visible
Pressure 30.36 in
Visibility 10.0 miles
Clouds Overcast 4100 ft
Windchill 29 °F
Dew Point 28 °F
Humidity 70%
Rainfall 0.00 in
Snow Depth Not available.
UV 0 out of 12
Pollen .60 out of 12
Air Quality Not available.
Flu Activity Not available.
METAR KMDW 010853Z 01017G26KT 10SM OVC041 04/M04 A3033 RMK AO2 PK WND 36026/0852 SNE38 SLP280 P0000 60000 T00441039 50004

More Conditions Fewer Conditions

Pressure 30.36 in
Visibility 10.0 miles
Clouds Overcast 4100 ft
Windchill 29 °F
Dew Point 28 °F
Humidity 70%
Rainfall 0.00 in
Snow Depth Not available.
UV 0 out of 12
Pollen .60 out of 12
Air Quality Not available.
Flu Activity Not available.
METAR KMDW 010853Z 01017G26KT 10SM OVC041 04/M04 A3033 RMK AO2 PK WND 36026/0852 SNE38 SLP280 P0000 60000 T00441039 50004

More Conditions Fewer Conditions

10-Day Weather Forecast

Almanac

Astronomy

Nov. 01, 2014 Rise Set
Actual Time
Civil Twilight
Nautical Twilight
Astronomical Twilight
Moon
Length of Visible Light
Length of Day
Tomorrow will be .
, % of the Moon is Illuminated

Today's Extremes

State Highs State Lows

Community

WunderPhotos

Upload Photos

1,766,872 photos uploaded!

WunderBlogs® & News

Nearby

Air Quality

  Air Quality AQ Index Pollutant
Not available.

Snow Depth

Station Depth Elevation

Earthquake Activity

City Distance Mag. Time & Date
Minimum magnitude displayed is 2.5.

Coastal Water Temperatures

Place Temperature

Nearby Weather Stations